sensor_id;sensor_type;location;lat;lon;timestamp;P1;durP1;ratioP1;P2;durP2;ratioP2
70165;SDS011;57541;47.408;18.822;2022-08-19T00:00:00;12.40;;;8.95;;
70165;SDS011;57541;47.408;18.822;2022-08-19T00:00:33;14.10;;;9.20;;
70165;SDS011;57541;47.408;18.822;2022-08-19T00:01:04;12.55;;;8.90;;
70165;SDS011;57541;47.408;18.822;2022-08-19T00:01:37;11.90;;;8.10;;
70165;SDS011;57541;47.408;18.822;2022-08-19T00:02:09;14.48;;;9.38;;
70165;SDS011;57541;47.408;18.822;2022-08-19T00:02:41;12.77;;;9.35;;
70165;SDS011;57541;47.408;18.822;2022-08-19T00:03:20;13.50;;;9.20;;
70165;SDS011;57541;47.408;18.822;2022-08-19T00:03:52;11.77;;;8.35;;
70165;SDS011;57541;47.408;18.822;2022-08-19T00:04:26;14.30;;;9.60;;
70165;SDS011;57541;47.408;18.822;2022-08-19T00:05:01;12.80;;;8.82;;
70165;SDS011;57541;47.408;18.822;2022-08-19T00:05:33;16.13;;;9.18;;
70165;SDS011;57541;47.408;18.822;2022-08-19T00:06:05;12.67;;;9.43;;
70165;SDS011;57541;47.408;18.822;2022-08-19T00:06:38;14.93;;;9.88;;
70165;SDS011;57541;47.408;18.822;2022-08-19T00:07:11;12.93;;;9.10;;
70165;SDS011;57541;47.408;18.822;2022-08-19T00:07:42;13.82;;;9.38;;
70165;SDS011;57541;47.408;18.822;2022-08-19T00:08:14;14.38;;;9.77;;
70165;SDS011;57541;47.408;18.822;2022-08-19T00:08:46;14.93;;;9.55;;
70165;SDS011;57541;47.408;18.822;2022-08-19T00:09:18;13.70;;;9.93;;
70165;SDS011;57541;47.408;18.822;2022-08-19T00:09:51;14.07;;;9.52;;
70165;SDS011;57541;47.408;18.822;2022-08-19T00:10:22;14.23;;;10.43;;
70165;SDS011;57541;47.408;18.822;2022-08-19T00:10:55;14.88;;;10.10;;
70165;SDS011;57541;47.408;18.822;2022-08-19T00:11:27;14.10;;;9.80;;
70165;SDS011;57541;47.408;18.822;2022-08-19T00:11:59;16.45;;;10.15;;
70165;SDS011;57541;47.408;18.822;2022-08-19T00:12:31;15.80;;;10.38;;
70165;SDS011;57541;47.408;18.822;2022-08-19T00:13:09;14.70;;;10.43;;
70165;SDS011;57541;47.408;18.822;2022-08-19T00:13:41;16.15;;;9.98;;
70165;SDS011;57541;47.408;18.822;2022-08-19T00:14:14;16.10;;;9.55;;
70165;SDS011;57541;47.408;18.822;2022-08-19T00:14:47;13.27;;;9.35;;
70165;SDS011;57541;47.408;18.822;2022-08-19T00:15:20;14.75;;;9.75;;
70165;SDS011;57541;47.408;18.822;2022-08-19T00:15:52;13.13;;;9.80;;
70165;SDS011;57541;47.408;18.822;2022-08-19T00:16:24;13.70;;;9.70;;
70165;SDS011;57541;47.408;18.822;2022-08-19T00:16:57;13.97;;;9.43;;
70165;SDS011;57541;47.408;18.822;2022-08-19T00:17:28;14.93;;;9.50;;
70165;SDS011;57541;47.408;18.822;2022-08-19T00:18:00;12.88;;;9.07;;
70165;SDS011;57541;47.408;18.822;2022-08-19T00:18:32;16.98;;;9.95;;
70165;SDS011;57541;47.408;18.822;2022-08-19T00:19:04;13.65;;;8.95;;
70165;SDS011;57541;47.408;18.822;2022-08-19T00:19:36;14.02;;;9.38;;
70165;SDS011;57541;47.408;18.822;2022-08-19T00:20:11;14.85;;;10.23;;
70165;SDS011;57541;47.408;18.822;2022-08-19T00:20:44;13.02;;;9.23;;
70165;SDS011;57541;47.408;18.822;2022-08-19T00:21:16;13.25;;;9.00;;
70165;SDS011;57541;47.408;18.822;2022-08-19T00:21:48;13.70;;;8.93;;
70165;SDS011;57541;47.408;18.822;2022-08-19T00:22:20;13.07;;;9.53;;
70165;SDS011;57541;47.408;18.822;2022-08-19T00:22:52;13.57;;;9.75;;
70165;SDS011;57541;47.408;18.822;2022-08-19T00:23:23;14.50;;;9.35;;
70165;SDS011;57541;47.408;18.822;2022-08-19T00:23:55;14.10;;;9.18;;
70165;SDS011;57541;47.408;18.822;2022-08-19T00:24:31;18.17;;;8.68;;
70165;SDS011;57541;47.408;18.822;2022-08-19T00:25:05;14.38;;;9.23;;
70165;SDS011;57541;47.408;18.822;2022-08-19T00:25:37;14.68;;;9.00;;
70165;SDS011;57541;47.408;18.822;2022-08-19T00:26:10;13.95;;;9.25;;
70165;SDS011;57541;47.408;18.822;2022-08-19T00:26:42;12.68;;;8.98;;
70165;SDS011;57541;47.408;18.822;2022-08-19T00:27:14;13.07;;;8.50;;
70165;SDS011;57541;47.408;18.822;2022-08-19T00:27:56;14.60;;;9.33;;
70165;SDS011;57541;47.408;18.822;2022-08-19T00:28:28;13.95;;;9.43;;
70165;SDS011;57541;47.408;18.822;2022-08-19T00:29:01;11.95;;;8.70;;
70165;SDS011;57541;47.408;18.822;2022-08-19T00:29:33;13.65;;;9.00;;
70165;SDS011;57541;47.408;18.822;2022-08-19T00:30:05;14.15;;;8.73;;
70165;SDS011;57541;47.408;18.822;2022-08-19T00:30:38;14.05;;;9.35;;
70165;SDS011;57541;47.408;18.822;2022-08-19T00:31:10;12.38;;;9.18;;
70165;SDS011;57541;47.408;18.822;2022-08-19T00:31:42;13.48;;;9.23;;
70165;SDS011;57541;47.408;18.822;2022-08-19T00:32:14;13.10;;;9.05;;
70165;SDS011;57541;47.408;18.822;2022-08-19T00:32:48;13.65;;;8.88;;
70165;SDS011;57541;47.408;18.822;2022-08-19T00:33:20;13.60;;;9.30;;
70165;SDS011;57541;47.408;18.822;2022-08-19T00:33:52;12.23;;;8.55;;
70165;SDS011;57541;47.408;18.822;2022-08-19T00:34:24;12.60;;;8.85;;
70165;SDS011;57541;47.408;18.822;2022-08-19T00:34:59;16.42;;;9.45;;
70165;SDS011;57541;47.408;18.822;2022-08-19T00:35:30;15.05;;;9.90;;
70165;SDS011;57541;47.408;18.822;2022-08-19T00:36:03;13.38;;;9.40;;
70165;SDS011;57541;47.408;18.822;2022-08-19T00:36:37;12.43;;;9.15;;
70165;SDS011;57541;47.408;18.822;2022-08-19T00:37:10;14.10;;;9.52;;
70165;SDS011;57541;47.408;18.822;2022-08-19T00:37:42;13.70;;;9.65;;
70165;SDS011;57541;47.408;18.822;2022-08-19T00:38:14;18.10;;;9.60;;
70165;SDS011;57541;47.408;18.822;2022-08-19T00:39:05;13.70;;;9.23;;
70165;SDS011;57541;47.408;18.822;2022-08-19T00:39:36;13.85;;;9.50;;
70165;SDS011;57541;47.408;18.822;2022-08-19T00:40:10;15.35;;;9.95;;
70165;SDS011;57541;47.408;18.822;2022-08-19T00:40:43;15.88;;;10.18;;
70165;SDS011;57541;47.408;18.822;2022-08-19T00:41:18;15.55;;;11.07;;
70165;SDS011;57541;47.408;18.822;2022-08-19T00:41:52;16.27;;;11.93;;
70165;SDS011;57541;47.408;18.822;2022-08-19T00:42:23;15.98;;;11.18;;
70165;SDS011;57541;47.408;18.822;2022-08-19T00:42:59;16.63;;;11.63;;
70165;SDS011;57541;47.408;18.822;2022-08-19T00:43:31;18.25;;;12.32;;
70165;SDS011;57541;47.408;18.822;2022-08-19T00:44:07;18.35;;;12.18;;
70165;SDS011;57541;47.408;18.822;2022-08-19T00:44:41;16.27;;;11.57;;
70165;SDS011;57541;47.408;18.822;2022-08-19T00:45:17;17.25;;;11.80;;
70165;SDS011;57541;47.408;18.822;2022-08-19T00:45:51;18.58;;;11.02;;
70165;SDS011;57541;47.408;18.822;2022-08-19T00:46:23;15.65;;;10.85;;
70165;SDS011;57541;47.408;18.822;2022-08-19T00:46:56;18.05;;;11.00;;
70165;SDS011;57541;47.408;18.822;2022-08-19T00:47:31;16.27;;;10.35;;
70165;SDS011;57541;47.408;18.822;2022-08-19T00:48:03;17.30;;;11.27;;
70165;SDS011;57541;47.408;18.822;2022-08-19T00:48:44;17.35;;;10.68;;
70165;SDS011;57541;47.408;18.822;2022-08-19T00:49:20;15.95;;;11.35;;
70165;SDS011;57541;47.408;18.822;2022-08-19T00:49:59;17.13;;;10.77;;
70165;SDS011;57541;47.408;18.822;2022-08-19T00:50:31;16.07;;;11.07;;
70165;SDS011;57541;47.408;18.822;2022-08-19T00:51:04;16.17;;;10.30;;
70165;SDS011;57541;47.408;18.822;2022-08-19T00:51:37;15.55;;;10.90;;
70165;SDS011;57541;47.408;18.822;2022-08-19T00:52:12;18.13;;;11.20;;
70165;SDS011;57541;47.408;18.822;2022-08-19T00:52:49;14.55;;;9.73;;
70165;SDS011;57541;47.408;18.822;2022-08-19T00:53:23;14.73;;;10.50;;
70165;SDS011;57541;47.408;18.822;2022-08-19T00:53:57;18.77;;;10.10;;
70165;SDS011;57541;47.408;18.822;2022-08-19T00:54:30;14.07;;;10.23;;
70165;SDS011;57541;47.408;18.822;2022-08-19T00:55:04;16.08;;;10.43;;
70165;SDS011;57541;47.408;18.822;2022-08-19T00:55:40;14.07;;;9.80;;
70165;SDS011;57541;47.408;18.822;2022-08-19T00:56:15;14.73;;;10.80;;
70165;SDS011;57541;47.408;18.822;2022-08-19T00:56:48;15.10;;;9.55;;
70165;SDS011;57541;47.408;18.822;2022-08-19T00:57:27;15.27;;;9.57;;
70165;SDS011;57541;47.408;18.822;2022-08-19T00:58:08;13.93;;;8.82;;
70165;SDS011;57541;47.408;18.822;2022-08-19T00:58:43;15.48;;;9.20;;
70165;SDS011;57541;47.408;18.822;2022-08-19T00:59:15;15.10;;;9.30;;
70165;SDS011;57541;47.408;18.822;2022-08-19T01:00:09;12.50;;;8.55;;
70165;SDS011;57541;47.408;18.822;2022-08-19T01:00:45;14.77;;;9.38;;
70165;SDS011;57541;47.408;18.822;2022-08-19T01:01:17;15.82;;;9.18;;
70165;SDS011;57541;47.408;18.822;2022-08-19T01:01:49;13.25;;;9.05;;
70165;SDS011;57541;47.408;18.822;2022-08-19T01:02:20;15.10;;;9.30;;
70165;SDS011;57541;47.408;18.822;2022-08-19T01:02:52;12.85;;;9.02;;
70165;SDS011;57541;47.408;18.822;2022-08-19T01:03:25;13.13;;;9.32;;
70165;SDS011;57541;47.408;18.822;2022-08-19T01:03:56;13.75;;;9.18;;
70165;SDS011;57541;47.408;18.822;2022-08-19T01:04:29;13.57;;;9.30;;
70165;SDS011;57541;47.408;18.822;2022-08-19T01:05:03;11.93;;;9.35;;
70165;SDS011;57541;47.408;18.822;2022-08-19T01:05:39;13.05;;;8.77;;
70165;SDS011;57541;47.408;18.822;2022-08-19T01:06:13;12.82;;;8.75;;
70165;SDS011;57541;47.408;18.822;2022-08-19T01:06:50;13.80;;;9.23;;
70165;SDS011;57541;47.408;18.822;2022-08-19T01:07:21;13.25;;;8.68;;
70165;SDS011;57541;47.408;18.822;2022-08-19T01:07:54;13.60;;;8.70;;
70165;SDS011;57541;47.408;18.822;2022-08-19T01:08:28;13.43;;;8.77;;
70165;SDS011;57541;47.408;18.822;2022-08-19T01:09:00;12.77;;;8.82;;
70165;SDS011;57541;47.408;18.822;2022-08-19T01:09:31;14.20;;;8.50;;
70165;SDS011;57541;47.408;18.822;2022-08-19T01:10:03;12.60;;;8.82;;
70165;SDS011;57541;47.408;18.822;2022-08-19T01:10:40;13.02;;;8.57;;
70165;SDS011;57541;47.408;18.822;2022-08-19T01:11:16;14.02;;;8.20;;
70165;SDS011;57541;47.408;18.822;2022-08-19T01:11:47;13.60;;;8.88;;
70165;SDS011;57541;47.408;18.822;2022-08-19T01:12:20;12.13;;;8.43;;
70165;SDS011;57541;47.408;18.822;2022-08-19T01:12:52;15.05;;;8.95;;
70165;SDS011;57541;47.408;18.822;2022-08-19T01:13:26;11.70;;;8.07;;
70165;SDS011;57541;47.408;18.822;2022-08-19T01:14:19;13.98;;;8.57;;
70165;SDS011;57541;47.408;18.822;2022-08-19T01:14:51;14.93;;;8.25;;
70165;SDS011;57541;47.408;18.822;2022-08-19T01:15:25;13.75;;;8.45;;
70165;SDS011;57541;47.408;18.822;2022-08-19T01:16:05;12.77;;;8.60;;
70165;SDS011;57541;47.408;18.822;2022-08-19T01:16:39;12.85;;;8.45;;
70165;SDS011;57541;47.408;18.822;2022-08-19T01:17:12;13.30;;;8.73;;
70165;SDS011;57541;47.408;18.822;2022-08-19T01:17:45;13.27;;;8.43;;
70165;SDS011;57541;47.408;18.822;2022-08-19T01:18:18;12.38;;;8.45;;
70165;SDS011;57541;47.408;18.822;2022-08-19T01:18:51;13.95;;;8.48;;
70165;SDS011;57541;47.408;18.822;2022-08-19T01:19:32;13.90;;;8.57;;
70165;SDS011;57541;47.408;18.822;2022-08-19T01:20:19;10.38;;;7.72;;
70165;SDS011;57541;47.408;18.822;2022-08-19T01:20:53;13.40;;;7.97;;
70165;SDS011;57541;47.408;18.822;2022-08-19T01:22:46;13.20;;;8.40;;
70165;SDS011;57541;47.408;18.822;2022-08-19T01:23:19;14.23;;;8.10;;
70165;SDS011;57541;47.408;18.822;2022-08-19T01:23:51;15.18;;;8.88;;
70165;SDS011;57541;47.408;18.822;2022-08-19T01:24:23;12.52;;;8.38;;
70165;SDS011;57541;47.408;18.822;2022-08-19T01:24:55;12.27;;;8.20;;
70165;SDS011;57541;47.408;18.822;2022-08-19T01:25:29;12.35;;;8.32;;
70165;SDS011;57541;47.408;18.822;2022-08-19T01:26:05;12.90;;;8.50;;
70165;SDS011;57541;47.408;18.822;2022-08-19T01:26:39;12.07;;;8.52;;
70165;SDS011;57541;47.408;18.822;2022-08-19T01:27:14;12.07;;;8.27;;
70165;SDS011;57541;47.408;18.822;2022-08-19T01:27:47;14.18;;;8.98;;
70165;SDS011;57541;47.408;18.822;2022-08-19T01:28:24;14.15;;;9.57;;
70165;SDS011;57541;47.408;18.822;2022-08-19T01:29:10;13.48;;;8.88;;
70165;SDS011;57541;47.408;18.822;2022-08-19T01:29:42;11.70;;;8.40;;
70165;SDS011;57541;47.408;18.822;2022-08-19T01:30:18;13.32;;;9.05;;
70165;SDS011;57541;47.408;18.822;2022-08-19T01:30:53;14.52;;;9.60;;
70165;SDS011;57541;47.408;18.822;2022-08-19T01:31:26;13.95;;;9.32;;
70165;SDS011;57541;47.408;18.822;2022-08-19T01:32:03;13.90;;;8.83;;
70165;SDS011;57541;47.408;18.822;2022-08-19T01:32:34;14.07;;;9.50;;
70165;SDS011;57541;47.408;18.822;2022-08-19T01:33:06;13.57;;;8.55;;
70165;SDS011;57541;47.408;18.822;2022-08-19T01:33:38;13.85;;;9.13;;
70165;SDS011;57541;47.408;18.822;2022-08-19T01:34:09;13.95;;;10.05;;
70165;SDS011;57541;47.408;18.822;2022-08-19T01:34:41;14.75;;;9.60;;
70165;SDS011;57541;47.408;18.822;2022-08-19T01:35:15;14.32;;;9.40;;
70165;SDS011;57541;47.408;18.822;2022-08-19T01:35:49;15.00;;;9.68;;
70165;SDS011;57541;47.408;18.822;2022-08-19T01:36:26;15.30;;;10.40;;
70165;SDS011;57541;47.408;18.822;2022-08-19T01:37:06;15.43;;;8.88;;
70165;SDS011;57541;47.408;18.822;2022-08-19T01:37:43;13.87;;;9.50;;
70165;SDS011;57541;47.408;18.822;2022-08-19T01:38:23;14.13;;;9.10;;
70165;SDS011;57541;47.408;18.822;2022-08-19T01:38:57;15.55;;;8.65;;
70165;SDS011;57541;47.408;18.822;2022-08-19T01:39:29;12.82;;;8.65;;
70165;SDS011;57541;47.408;18.822;2022-08-19T01:40:00;15.25;;;9.57;;
70165;SDS011;57541;47.408;18.822;2022-08-19T01:40:39;13.82;;;9.35;;
70165;SDS011;57541;47.408;18.822;2022-08-19T01:41:11;15.15;;;9.27;;
70165;SDS011;57541;47.408;18.822;2022-08-19T01:41:43;13.98;;;9.02;;
70165;SDS011;57541;47.408;18.822;2022-08-19T01:42:15;13.48;;;8.80;;
70165;SDS011;57541;47.408;18.822;2022-08-19T01:42:47;13.20;;;8.93;;
70165;SDS011;57541;47.408;18.822;2022-08-19T01:43:20;13.90;;;8.80;;
70165;SDS011;57541;47.408;18.822;2022-08-19T01:43:52;13.38;;;9.02;;
70165;SDS011;57541;47.408;18.822;2022-08-19T01:44:44;12.63;;;8.55;;
70165;SDS011;57541;47.408;18.822;2022-08-19T01:45:16;12.85;;;8.38;;
70165;SDS011;57541;47.408;18.822;2022-08-19T01:45:49;12.88;;;8.80;;
70165;SDS011;57541;47.408;18.822;2022-08-19T01:46:22;13.43;;;8.45;;
70165;SDS011;57541;47.408;18.822;2022-08-19T01:46:55;13.32;;;8.50;;
70165;SDS011;57541;47.408;18.822;2022-08-19T01:47:27;11.55;;;8.27;;
70165;SDS011;57541;47.408;18.822;2022-08-19T01:47:59;14.27;;;8.32;;
70165;SDS011;57541;47.408;18.822;2022-08-19T01:48:36;12.95;;;8.10;;
70165;SDS011;57541;47.408;18.822;2022-08-19T01:49:10;13.23;;;8.53;;
70165;SDS011;57541;47.408;18.822;2022-08-19T01:49:41;14.63;;;8.50;;
70165;SDS011;57541;47.408;18.822;2022-08-19T01:50:13;14.10;;;8.98;;
70165;SDS011;57541;47.408;18.822;2022-08-19T01:50:45;13.00;;;8.52;;
70165;SDS011;57541;47.408;18.822;2022-08-19T01:51:19;13.48;;;8.15;;
70165;SDS011;57541;47.408;18.822;2022-08-19T01:51:50;12.52;;;7.95;;
70165;SDS011;57541;47.408;18.822;2022-08-19T01:52:22;11.10;;;8.15;;
70165;SDS011;57541;47.408;18.822;2022-08-19T01:52:54;12.93;;;8.38;;
70165;SDS011;57541;47.408;18.822;2022-08-19T01:53:36;12.55;;;7.93;;
70165;SDS011;57541;47.408;18.822;2022-08-19T01:54:10;11.20;;;7.65;;
70165;SDS011;57541;47.408;18.822;2022-08-19T01:54:43;11.93;;;7.83;;
70165;SDS011;57541;47.408;18.822;2022-08-19T01:55:17;12.55;;;8.07;;
70165;SDS011;57541;47.408;18.822;2022-08-19T01:55:50;11.93;;;7.75;;
70165;SDS011;57541;47.408;18.822;2022-08-19T01:56:23;11.32;;;7.60;;
70165;SDS011;57541;47.408;18.822;2022-08-19T01:56:57;14.20;;;7.90;;
70165;SDS011;57541;47.408;18.822;2022-08-19T01:57:32;12.35;;;7.55;;
70165;SDS011;57541;47.408;18.822;2022-08-19T01:58:04;11.25;;;7.88;;
70165;SDS011;57541;47.408;18.822;2022-08-19T01:58:39;10.02;;;7.05;;
70165;SDS011;57541;47.408;18.822;2022-08-19T01:59:17;12.35;;;7.30;;
70165;SDS011;57541;47.408;18.822;2022-08-19T01:59:51;11.32;;;7.15;;
70165;SDS011;57541;47.408;18.822;2022-08-19T02:01:04;10.27;;;6.82;;
70165;SDS011;57541;47.408;18.822;2022-08-19T02:01:36;10.60;;;6.90;;
70165;SDS011;57541;47.408;18.822;2022-08-19T02:02:08;12.18;;;7.53;;
70165;SDS011;57541;47.408;18.822;2022-08-19T02:02:39;11.50;;;7.43;;
70165;SDS011;57541;47.408;18.822;2022-08-19T02:03:14;11.02;;;7.03;;
70165;SDS011;57541;47.408;18.822;2022-08-19T02:03:47;11.55;;;7.25;;
70165;SDS011;57541;47.408;18.822;2022-08-19T02:04:18;9.57;;;6.90;;
70165;SDS011;57541;47.408;18.822;2022-08-19T02:04:50;11.10;;;7.18;;
70165;SDS011;57541;47.408;18.822;2022-08-19T02:05:21;10.02;;;7.05;;
70165;SDS011;57541;47.408;18.822;2022-08-19T02:05:55;13.37;;;7.23;;
70165;SDS011;57541;47.408;18.822;2022-08-19T02:06:30;13.02;;;7.40;;
70165;SDS011;57541;47.408;18.822;2022-08-19T02:07:03;10.90;;;7.10;;
70165;SDS011;57541;47.408;18.822;2022-08-19T02:07:36;11.38;;;7.47;;
70165;SDS011;57541;47.408;18.822;2022-08-19T02:08:11;10.45;;;6.63;;
70165;SDS011;57541;47.408;18.822;2022-08-19T02:08:43;11.77;;;7.10;;
70165;SDS011;57541;47.408;18.822;2022-08-19T02:09:18;10.70;;;7.00;;
70165;SDS011;57541;47.408;18.822;2022-08-19T02:09:49;11.38;;;6.70;;
70165;SDS011;57541;47.408;18.822;2022-08-19T02:10:21;10.45;;;7.03;;
70165;SDS011;57541;47.408;18.822;2022-08-19T02:10:53;11.13;;;7.00;;
70165;SDS011;57541;47.408;18.822;2022-08-19T02:11:29;12.13;;;7.00;;
70165;SDS011;57541;47.408;18.822;2022-08-19T02:12:03;9.68;;;6.40;;
70165;SDS011;57541;47.408;18.822;2022-08-19T02:12:36;11.40;;;7.30;;
70165;SDS011;57541;47.408;18.822;2022-08-19T02:13:07;11.50;;;7.80;;
70165;SDS011;57541;47.408;18.822;2022-08-19T02:13:40;10.55;;;7.03;;
70165;SDS011;57541;47.408;18.822;2022-08-19T02:14:12;11.93;;;6.60;;
70165;SDS011;57541;47.408;18.822;2022-08-19T02:14:44;11.98;;;7.07;;
70165;SDS011;57541;47.408;18.822;2022-08-19T02:15:18;12.35;;;6.90;;
70165;SDS011;57541;47.408;18.822;2022-08-19T02:15:50;11.77;;;7.15;;
70165;SDS011;57541;47.408;18.822;2022-08-19T02:16:22;10.73;;;6.85;;
70165;SDS011;57541;47.408;18.822;2022-08-19T02:16:54;11.97;;;7.33;;
70165;SDS011;57541;47.408;18.822;2022-08-19T02:17:26;10.80;;;7.03;;
70165;SDS011;57541;47.408;18.822;2022-08-19T02:17:59;10.77;;;6.53;;
70165;SDS011;57541;47.408;18.822;2022-08-19T02:18:31;10.20;;;7.15;;
70165;SDS011;57541;47.408;18.822;2022-08-19T02:19:03;10.32;;;7.45;;
70165;SDS011;57541;47.408;18.822;2022-08-19T02:19:35;12.45;;;7.22;;
70165;SDS011;57541;47.408;18.822;2022-08-19T02:20:11;12.30;;;6.97;;
70165;SDS011;57541;47.408;18.822;2022-08-19T02:20:44;10.50;;;7.50;;
70165;SDS011;57541;47.408;18.822;2022-08-19T02:21:18;10.48;;;6.93;;
70165;SDS011;57541;47.408;18.822;2022-08-19T02:21:51;10.20;;;7.03;;
70165;SDS011;57541;47.408;18.822;2022-08-19T02:22:23;12.37;;;7.50;;
70165;SDS011;57541;47.408;18.822;2022-08-19T02:22:56;10.43;;;7.40;;
70165;SDS011;57541;47.408;18.822;2022-08-19T02:23:28;11.68;;;7.00;;
70165;SDS011;57541;47.408;18.822;2022-08-19T02:23:59;11.93;;;7.97;;
70165;SDS011;57541;47.408;18.822;2022-08-19T02:24:32;12.75;;;7.28;;
70165;SDS011;57541;47.408;18.822;2022-08-19T02:25:03;12.07;;;7.07;;
70165;SDS011;57541;47.408;18.822;2022-08-19T02:25:36;11.38;;;7.25;;
70165;SDS011;57541;47.408;18.822;2022-08-19T02:26:08;11.10;;;7.50;;
70165;SDS011;57541;47.408;18.822;2022-08-19T02:26:40;10.57;;;6.60;;
70165;SDS011;57541;47.408;18.822;2022-08-19T02:27:11;11.95;;;6.93;;
70165;SDS011;57541;47.408;18.822;2022-08-19T02:27:43;11.03;;;6.50;;
70165;SDS011;57541;47.408;18.822;2022-08-19T02:28:15;11.63;;;7.13;;
70165;SDS011;57541;47.408;18.822;2022-08-19T02:28:49;9.68;;;6.97;;
70165;SDS011;57541;47.408;18.822;2022-08-19T02:29:20;11.68;;;6.72;;
70165;SDS011;57541;47.408;18.822;2022-08-19T02:29:52;10.43;;;7.28;;
70165;SDS011;57541;47.408;18.822;2022-08-19T02:30:24;11.23;;;7.10;;
70165;SDS011;57541;47.408;18.822;2022-08-19T02:30:56;11.95;;;7.70;;
70165;SDS011;57541;47.408;18.822;2022-08-19T02:31:29;12.45;;;6.78;;
70165;SDS011;57541;47.408;18.822;2022-08-19T02:32:01;11.95;;;7.07;;
70165;SDS011;57541;47.408;18.822;2022-08-19T02:32:33;12.55;;;6.93;;
70165;SDS011;57541;47.408;18.822;2022-08-19T02:33:15;11.30;;;6.87;;
70165;SDS011;57541;47.408;18.822;2022-08-19T02:33:47;10.93;;;6.72;;
70165;SDS011;57541;47.408;18.822;2022-08-19T02:34:19;12.23;;;7.25;;
70165;SDS011;57541;47.408;18.822;2022-08-19T02:34:50;10.88;;;7.35;;
70165;SDS011;57541;47.408;18.822;2022-08-19T02:35:22;11.60;;;7.35;;
70165;SDS011;57541;47.408;18.822;2022-08-19T02:35:53;10.82;;;6.80;;
70165;SDS011;57541;47.408;18.822;2022-08-19T02:36:25;11.63;;;7.03;;
70165;SDS011;57541;47.408;18.822;2022-08-19T02:36:57;11.18;;;6.70;;
70165;SDS011;57541;47.408;18.822;2022-08-19T02:37:34;13.15;;;6.95;;
70165;SDS011;57541;47.408;18.822;2022-08-19T02:38:24;9.30;;;6.32;;
70165;SDS011;57541;47.408;18.822;2022-08-19T02:38:56;11.37;;;6.90;;
70165;SDS011;57541;47.408;18.822;2022-08-19T02:39:28;9.95;;;6.95;;
70165;SDS011;57541;47.408;18.822;2022-08-19T02:39:59;11.55;;;7.03;;
70165;SDS011;57541;47.408;18.822;2022-08-19T02:40:32;11.02;;;6.88;;
70165;SDS011;57541;47.408;18.822;2022-08-19T02:41:06;12.18;;;7.05;;
70165;SDS011;57541;47.408;18.822;2022-08-19T02:41:42;10.57;;;6.70;;
70165;SDS011;57541;47.408;18.822;2022-08-19T02:42:14;12.77;;;6.93;;
70165;SDS011;57541;47.408;18.822;2022-08-19T02:42:45;9.85;;;6.88;;
70165;SDS011;57541;47.408;18.822;2022-08-19T02:43:17;10.15;;;6.43;;
70165;SDS011;57541;47.408;18.822;2022-08-19T02:43:51;12.93;;;6.22;;
70165;SDS011;57541;47.408;18.822;2022-08-19T02:44:43;11.00;;;6.83;;
70165;SDS011;57541;47.408;18.822;2022-08-19T02:45:14;10.43;;;6.93;;
70165;SDS011;57541;47.408;18.822;2022-08-19T02:45:46;11.48;;;6.65;;
70165;SDS011;57541;47.408;18.822;2022-08-19T02:46:24;10.60;;;7.05;;
70165;SDS011;57541;47.408;18.822;2022-08-19T02:46:58;10.35;;;6.63;;
70165;SDS011;57541;47.408;18.822;2022-08-19T02:47:29;12.80;;;6.43;;
70165;SDS011;57541;47.408;18.822;2022-08-19T02:48:01;11.93;;;7.03;;
70165;SDS011;57541;47.408;18.822;2022-08-19T02:48:43;10.85;;;6.72;;
70165;SDS011;57541;47.408;18.822;2022-08-19T02:49:14;11.40;;;7.10;;
70165;SDS011;57541;47.408;18.822;2022-08-19T02:49:47;12.73;;;6.47;;
70165;SDS011;57541;47.408;18.822;2022-08-19T02:50:21;11.00;;;6.83;;
70165;SDS011;57541;47.408;18.822;2022-08-19T02:50:52;10.40;;;6.32;;
70165;SDS011;57541;47.408;18.822;2022-08-19T02:51:28;12.70;;;6.97;;
70165;SDS011;57541;47.408;18.822;2022-08-19T02:52:02;9.75;;;6.80;;
70165;SDS011;57541;47.408;18.822;2022-08-19T02:52:34;10.55;;;6.53;;
70165;SDS011;57541;47.408;18.822;2022-08-19T02:53:07;10.98;;;6.50;;
70165;SDS011;57541;47.408;18.822;2022-08-19T02:53:39;10.25;;;6.40;;
70165;SDS011;57541;47.408;18.822;2022-08-19T02:54:11;10.48;;;6.32;;
70165;SDS011;57541;47.408;18.822;2022-08-19T02:54:43;10.40;;;7.15;;
70165;SDS011;57541;47.408;18.822;2022-08-19T02:55:15;11.57;;;6.50;;
70165;SDS011;57541;47.408;18.822;2022-08-19T02:55:47;10.90;;;6.90;;
70165;SDS011;57541;47.408;18.822;2022-08-19T02:56:20;11.55;;;6.95;;
70165;SDS011;57541;47.408;18.822;2022-08-19T02:56:51;10.82;;;7.30;;
70165;SDS011;57541;47.408;18.822;2022-08-19T02:57:23;11.57;;;6.40;;
70165;SDS011;57541;47.408;18.822;2022-08-19T02:57:55;11.45;;;6.43;;
70165;SDS011;57541;47.408;18.822;2022-08-19T02:58:28;13.45;;;7.20;;
70165;SDS011;57541;47.408;18.822;2022-08-19T02:59:00;11.10;;;6.90;;
70165;SDS011;57541;47.408;18.822;2022-08-19T02:59:32;11.75;;;6.88;;
70165;SDS011;57541;47.408;18.822;2022-08-19T03:00:05;10.60;;;6.72;;
70165;SDS011;57541;47.408;18.822;2022-08-19T03:00:44;10.68;;;6.88;;
70165;SDS011;57541;47.408;18.822;2022-08-19T03:01:22;11.63;;;6.87;;
70165;SDS011;57541;47.408;18.822;2022-08-19T03:01:55;11.27;;;6.53;;
70165;SDS011;57541;47.408;18.822;2022-08-19T03:02:27;12.38;;;6.85;;
70165;SDS011;57541;47.408;18.822;2022-08-19T03:02:58;11.23;;;6.72;;
70165;SDS011;57541;47.408;18.822;2022-08-19T03:03:31;12.18;;;6.78;;
70165;SDS011;57541;47.408;18.822;2022-08-19T03:04:04;10.85;;;6.30;;
70165;SDS011;57541;47.408;18.822;2022-08-19T03:04:37;11.27;;;7.35;;
70165;SDS011;57541;47.408;18.822;2022-08-19T03:05:09;13.20;;;7.15;;
70165;SDS011;57541;47.408;18.822;2022-08-19T03:05:41;12.07;;;7.07;;
70165;SDS011;57541;47.408;18.822;2022-08-19T03:06:27;11.20;;;6.78;;
70165;SDS011;57541;47.408;18.822;2022-08-19T03:06:59;9.27;;;6.00;;
70165;SDS011;57541;47.408;18.822;2022-08-19T03:07:41;12.85;;;6.50;;
70165;SDS011;57541;47.408;18.822;2022-08-19T03:08:13;10.88;;;6.57;;
70165;SDS011;57541;47.408;18.822;2022-08-19T03:08:45;10.25;;;6.55;;
70165;SDS011;57541;47.408;18.822;2022-08-19T03:09:18;10.38;;;6.75;;
70165;SDS011;57541;47.408;18.822;2022-08-19T03:09:51;10.85;;;7.25;;
70165;SDS011;57541;47.408;18.822;2022-08-19T03:10:22;11.23;;;7.10;;
70165;SDS011;57541;47.408;18.822;2022-08-19T03:10:54;10.02;;;6.47;;
70165;SDS011;57541;47.408;18.822;2022-08-19T03:11:27;12.35;;;7.18;;
70165;SDS011;57541;47.408;18.822;2022-08-19T03:12:02;11.27;;;6.75;;
70165;SDS011;57541;47.408;18.822;2022-08-19T03:12:37;13.90;;;7.00;;
70165;SDS011;57541;47.408;18.822;2022-08-19T03:13:11;11.52;;;6.65;;
70165;SDS011;57541;47.408;18.822;2022-08-19T03:13:46;11.88;;;7.60;;
70165;SDS011;57541;47.408;18.822;2022-08-19T03:14:21;11.35;;;6.88;;
70165;SDS011;57541;47.408;18.822;2022-08-19T03:14:54;11.05;;;7.15;;
70165;SDS011;57541;47.408;18.822;2022-08-19T03:15:25;13.65;;;6.97;;
70165;SDS011;57541;47.408;18.822;2022-08-19T03:15:57;9.52;;;6.45;;
70165;SDS011;57541;47.408;18.822;2022-08-19T03:16:30;11.32;;;7.00;;
70165;SDS011;57541;47.408;18.822;2022-08-19T03:17:04;9.57;;;6.32;;
70165;SDS011;57541;47.408;18.822;2022-08-19T03:17:36;10.15;;;6.95;;
70165;SDS011;57541;47.408;18.822;2022-08-19T03:18:08;10.80;;;6.80;;
70165;SDS011;57541;47.408;18.822;2022-08-19T03:18:40;10.65;;;7.03;;